Time;durP1;ratioP1;P1;durP2;ratioP2;P2;SDS_P1;SDS_P2;PMS_P1;PMS_P2;Temp;Humidity;BMP_temperature;BMP_pressure;BME280_temperature;BME280_humidity;BME280_pressure;Samples;Min_cycle;Max_cycle;Signal;HPM_P1;HPM_P2
2022/11/10 00:01:54;;;;;;;;;;;;;;;21.01;59.61;100726.60;105377;1285;20057;-61
2022/11/10 00:04:21;;;;;;;;;4.50;4.00;;;;;21.01;59.54;100734.95;105409;1291;20072;-61
2022/11/10 00:06:48;;;;;;;;;;;;;;;21.02;59.39;100737.35;105722;1287;18411;-61
2022/11/10 00:09:16;;;;;;;;;2.00;2.00;;;;;21.02;59.55;100735.59;105722;1278;21377;-60
2022/11/10 00:11:43;;;;;;;;;4.50;4.50;;;;;21.02;59.46;100738.10;105776;1294;20808;-62
2022/11/10 00:17:03;;;;;;;;;2.00;2.00;;;;;21.00;59.55;100731.24;105612;1284;337142;-60
2022/11/10 00:19:30;;;;;;;;;5.00;5.00;;;;;21.00;59.36;100736.66;105707;1288;19310;-62
2022/11/10 00:21:57;;;;;;;;;8.00;7.00;;;;;21.00;59.52;100738.88;105722;1294;19643;-61
2022/11/10 00:24:25;;;;;;;;;;;;;;;21.01;59.44;100742.23;105730;1294;18521;-62
2022/11/10 00:26:52;;;;;;;;;4.00;4.00;;;;;21.01;59.41;100750.67;105757;1283;19291;-61
2022/11/10 00:29:20;;;;;;;;;5.00;4.00;;;;;21.02;59.41;100746.66;105730;1295;18436;-61
2022/11/10 00:31:47;;;;;;;;;5.00;5.00;;;;;21.01;59.36;100750.00;105789;1288;20428;-61
2022/11/10 00:34:14;;;;;;;;;4.50;4.00;;;;;21.01;59.29;100748.41;105768;1279;19352;-62
2022/11/10 00:36:42;;;;;;;;;4.00;4.00;;;;;21.01;59.22;100753.69;105724;1279;18429;-61
2022/11/10 00:39:09;;;;;;;;;4.00;2.00;;;;;21.01;59.40;100754.23;105723;1294;18526;-62
2022/11/10 00:41:36;;;;;;;;;2.00;2.00;;;;;20.99;59.34;100750.80;105730;1290;20955;-62
2022/11/10 00:44:03;;;;;;;;;2.00;2.00;;;;;21.00;59.27;100754.27;105763;1290;19627;-62
2022/11/10 00:46:31;;;;;;;;;2.00;2.00;;;;;21.00;59.30;100752.80;105746;1272;19939;-61
2022/11/10 00:48:58;;;;;;;;;3.00;3.00;;;;;21.00;59.35;100750.48;105723;1297;20766;-62
2022/11/10 00:51:25;;;;;;;;;4.00;4.00;;;;;20.99;59.50;100749.55;105733;1272;18466;-62
2022/11/10 00:53:53;;;;;;;;;4.00;4.00;;;;;20.99;59.39;100750.21;105710;1288;22689;-62
2022/11/10 00:56:20;;;;;;;;;4.00;4.00;;;;;20.99;59.31;100751.14;105738;1295;20749;-59
2022/11/10 00:58:47;;;;;;;;;2.00;2.00;;;;;20.99;59.34;100747.13;105730;1279;20063;-61
2022/11/10 01:01:15;;;;;;;;;4.00;2.00;;;;;20.99;59.22;100750.05;105714;1279;21088;-62
2022/11/10 01:03:42;;;;;;;;;2.00;2.00;;;;;21.00;59.25;100743.97;105712;1279;20670;-62
2022/11/10 01:06:09;;;;;;;;;2.00;2.00;;;;;21.00;59.45;100746.83;105702;1294;20311;-62
2022/11/10 01:08:37;;;;;;;;;5.00;4.00;;;;;20.99;59.17;100750.11;105696;1279;20190;-62
2022/11/10 01:11:04;;;;;;;;;2.00;2.00;;;;;20.98;59.42;100749.50;105745;1295;20017;-62
2022/11/10 01:13:31;;;;;;;;;;;;;;;20.98;59.34;100745.48;105665;1286;21543;-62
2022/11/10 01:15:58;;;;;;;;;5.00;5.00;;;;;20.97;59.26;100748.48;105639;1294;18201;-61
2022/11/10 01:18:26;;;;;;;;;4.00;4.00;;;;;20.98;59.33;100751.77;105722;1300;21992;-61
2022/11/10 01:20:53;;;;;;;;;4.00;2.00;;;;;20.97;59.25;100749.95;105723;1288;19589;-62
2022/11/10 01:23:20;;;;;;;;;4.00;4.00;;;;;20.98;59.29;100750.77;105681;1297;19942;-62
2022/11/10 01:25:48;;;;;;;;;3.00;3.00;;;;;20.97;59.22;100759.96;105763;1286;20767;-62
2022/11/10 01:28:15;;;;;;;;;;;;;;;20.97;59.22;100772.96;105744;1272;18460;-61
2022/11/10 01:30:42;;;;;;;;;4.00;4.00;;;;;20.97;59.25;100768.14;105745;1278;18381;-61
2022/11/10 01:33:10;;;;;;;;;4.00;4.00;;;;;20.97;59.23;100764.95;105664;1279;19932;-61
2022/11/10 01:35:37;;;;;;;;;4.00;2.00;;;;;20.96;59.24;100758.91;105753;1294;19657;-63
2022/11/10 01:38:04;;;;;;;;;4.00;4.00;;;;;20.96;59.16;100769.85;105769;1286;19845;-61
2022/11/10 01:40:31;;;;;;;;;4.00;2.00;;;;;20.97;59.20;100762.61;105714;1279;20833;-61
2022/11/10 01:42:59;;;;;;;;;2.00;2.00;;;;;20.97;59.29;100758.83;105753;1271;19573;-61
2022/11/10 01:45:26;;;;;;;;;4.00;2.00;;;;;20.97;59.29;100761.60;105731;1272;20049;-60
2022/11/10 01:47:53;;;;;;;;;5.00;4.00;;;;;20.96;59.26;100776.02;105729;1294;20648;-61
2022/11/10 01:50:21;;;;;;;;;4.00;4.00;;;;;20.96;59.32;100774.92;105747;1294;18402;-61
2022/11/10 01:52:48;;;;;;;;;4.00;4.00;;;;;20.97;59.34;100772.46;105731;1278;22584;-61
2022/11/10 01:55:15;;;;;;;;;4.00;4.00;;;;;20.96;59.34;100775.09;105747;1279;19439;-61
2022/11/10 01:57:43;;;;;;;;;4.00;2.00;;;;;20.97;59.24;100776.10;105724;1293;19651;-62
2022/11/10 02:00:10;;;;;;;;;2.00;2.00;;;;;20.97;59.35;100773.41;105700;1294;19048;-61
2022/11/10 02:02:37;;;;;;;;;4.00;4.00;;;;;20.96;59.28;100776.64;105696;1279;20834;-61
2022/11/10 02:05:05;;;;;;;;;2.00;2.00;;;;;20.96;59.35;100771.27;105752;1294;18482;-61
2022/11/10 02:07:32;;;;;;;;;2.00;2.00;;;;;20.96;59.18;100774.38;105741;1279;21531;-62
2022/11/10 02:09:59;;;;;;;;;4.00;2.00;;;;;20.95;59.29;100772.30;105735;1281;20795;-61
2022/11/10 02:12:36;;;;;;;;;4.00;3.00;;;;;20.95;59.39;100776.73;105721;1295;22198;-61
2022/11/10 02:15:03;;;;;;;;;4.00;4.00;;;;;20.95;59.22;100773.46;105745;1286;18432;-60
2022/11/10 02:17:31;;;;;;;;;4.00;4.00;;;;;20.95;59.49;100776.02;105711;1289;20728;-62
2022/11/10 02:19:58;;;;;;;;;4.00;4.00;;;;;20.94;59.17;100777.12;105741;1271;18571;-62
2022/11/10 02:22:25;;;;;;;;;;;;;;;20.95;59.28;100776.91;105740;1278;21419;-61
2022/11/10 02:24:53;;;;;;;;;4.00;4.00;;;;;20.95;59.37;100771.26;105734;1294;19805;-61
2022/11/10 02:27:20;;;;;;;;;4.00;3.00;;;;;20.94;59.26;100772.42;105737;1278;22773;-61
2022/11/10 02:29:47;;;;;;;;;2.00;2.00;;;;;20.94;59.33;100772.95;105723;1280;20090;-62
2022/11/10 02:32:15;;;;;;;;;4.00;4.00;;;;;20.94;59.30;100778.98;105739;1294;19311;-63
2022/11/10 02:34:42;;;;;;;;;5.00;4.00;;;;;20.95;59.38;100783.45;105694;1272;22755;-61
2022/11/10 02:37:10;;;;;;;;;2.00;2.00;;;;;20.94;59.19;100784.06;105733;1288;20003;-62
2022/11/10 02:39:37;;;;;;;;;2.00;2.00;;;;;20.94;59.25;100781.24;105730;1279;19623;-62
2022/11/10 02:42:09;;;;;;;;;2.00;2.00;;;;;20.94;59.36;100786.11;105716;1287;19915;-60
2022/11/10 02:44:36;;;;;;;;;4.00;4.00;;;;;20.94;59.28;100785.36;105688;1294;19960;-61
2022/11/10 02:47:03;;;;;;;;;2.00;2.00;;;;;20.93;59.29;100790.14;105760;1295;19277;-62
2022/11/10 02:49:31;;;;;;;;;4.00;2.00;;;;;20.93;59.23;100791.08;105715;1288;18425;-62
2022/11/10 02:51:58;;;;;;;;;4.00;4.00;;;;;20.93;59.16;100797.10;105722;1281;18611;-60
2022/11/10 02:54:25;;;;;;;;;4.00;2.00;;;;;20.94;59.33;100806.65;105698;1279;20764;-63
2022/11/10 02:56:53;;;;;;;;;2.00;2.00;;;;;20.94;59.24;100811.21;105758;1294;19590;-61
2022/11/10 02:59:20;;;;;;;;;;;;;;;20.93;59.13;100813.22;105748;1273;19603;-58
2022/11/10 03:01:47;;;;;;;;;2.00;2.00;;;;;20.93;59.35;100811.20;105734;1288;20671;-59
2022/11/10 03:04:14;;;;;;;;;2.00;2.00;;;;;20.94;59.38;100813.91;105701;1294;18521;-60
2022/11/10 03:06:42;;;;;;;;;4.00;4.00;;;;;20.93;59.14;100815.60;105686;1278;21480;-60
2022/11/10 03:09:09;;;;;;;;;2.00;2.00;;;;;20.93;59.19;100818.73;105733;1289;20868;-61
2022/11/10 03:11:36;;;;;;;;;4.00;2.00;;;;;20.93;59.17;100821.09;105697;1294;25168;-60
2022/11/10 03:14:04;;;;;;;;;1.00;1.00;;;;;20.94;59.35;100827.88;105672;1279;20087;-61
2022/11/10 03:16:31;;;;;;;;;2.00;2.00;;;;;20.93;59.14;100827.83;105707;1294;22826;-61
2022/11/10 03:18:58;;;;;;;;;2.00;2.00;;;;;20.92;59.05;100825.21;105716;1279;18394;-62
2022/11/10 03:21:26;;;;;;;;;2.00;2.00;;;;;20.93;59.04;100827.65;105670;1271;22701;-60
2022/11/10 03:23:53;;;;;;;;;4.00;2.00;;;;;20.93;59.18;100824.33;105720;1281;20852;-62
2022/11/10 03:26:21;;;;;;;;;2.00;2.00;;;;;20.92;59.13;100826.60;105724;1294;23922;-61
2022/11/10 03:28:48;;;;;;;;;4.00;4.00;;;;;20.92;59.17;100827.16;105773;1279;18418;-61
2022/11/10 03:31:15;;;;;;;;;2.00;2.00;;;;;20.92;59.14;100835.19;105731;1298;22062;-61
2022/11/10 03:33:43;;;;;;;;;2.00;2.00;;;;;20.92;59.16;100834.66;105737;1279;19645;-62
2022/11/10 03:36:10;;;;;;;;;4.00;2.00;;;;;20.92;59.17;100832.97;105740;1295;19189;-61
2022/11/10 03:38:37;;;;;;;;;2.00;2.00;;;;;20.91;59.12;100830.52;105724;1286;19271;-63
2022/11/10 03:41:05;;;;;;;;;4.00;4.00;;;;;20.91;59.09;100833.79;105771;1294;22776;-61
2022/11/10 03:43:32;;;;;;;;;2.00;2.00;;;;;20.91;59.24;100828.54;105736;1288;18540;-62
2022/11/10 03:45:59;;;;;;;;;4.00;3.00;;;;;20.91;59.14;100827.11;105740;1279;19326;-61
2022/11/10 03:48:27;;;;;;;;;2.00;2.00;;;;;20.91;59.14;100831.51;105743;1296;19622;-62
2022/11/10 03:50:54;;;;;;;;;2.00;2.00;;;;;20.90;59.21;100834.34;105717;1288;19980;-61
2022/11/10 03:53:21;;;;;;;;;2.00;2.00;;;;;20.90;59.08;100837.37;105742;1288;19283;-59
2022/11/10 03:55:49;;;;;;;;;2.00;2.00;;;;;20.91;59.25;100838.98;105744;1297;20874;-60
2022/11/10 03:58:16;;;;;;;;;2.00;2.00;;;;;20.90;59.19;100835.56;105693;1272;20071;-61
2022/11/10 04:00:43;;;;;;;;;2.00;2.00;;;;;20.90;59.25;100833.73;105716;1271;25682;-61
2022/11/10 04:03:10;;;;;;;;;4.50;2.00;;;;;20.90;59.22;100832.26;105684;1286;18398;-62
2022/11/10 04:11:08;;;;;;;;;4.00;4.00;;;;;20.90;59.25;100829.07;105692;1297;18426;-61
2022/11/10 04:16:20;;;;;;;;;3.00;3.00;;;;;20.90;59.24;100832.84;105740;1294;19169;-62
2022/11/10 04:18:47;;;;;;;;;4.00;2.00;;;;;20.89;59.11;100835.64;105767;1287;19607;-61
2022/11/10 04:21:14;;;;;;;;;2.00;2.00;;;;;20.90;59.18;100833.25;105730;1292;19926;-60
2022/11/10 04:23:42;;;;;;;;;2.00;2.00;;;;;20.90;59.21;100835.06;105695;1297;19490;-62
2022/11/10 04:28:54;;;;;;;;;4.00;2.00;;;;;20.90;59.21;100844.90;105754;1288;18778;-62
2022/11/10 04:31:21;;;;;;;;;2.00;2.00;;;;;20.90;59.12;100852.38;105670;1287;19295;-61
2022/11/10 04:33:49;;;;;;;;;5.00;4.00;;;;;20.91;59.08;100857.54;105735;1272;22924;-62
2022/11/10 04:36:16;;;;;;;;;7.00;2.00;;;;;20.90;59.24;100854.64;105711;1294;19999;-61
2022/11/10 04:38:43;;;;;;;;;4.00;2.00;;;;;20.90;59.09;100850.90;105690;1294;22546;-61
2022/11/10 04:41:11;;;;;;;;;2.00;2.00;;;;;20.89;59.21;100851.14;105758;1294;19656;-62
2022/11/10 04:43:38;;;;;;;;;2.00;2.00;;;;;20.89;59.19;100854.59;105701;1288;21234;-62
2022/11/10 04:46:05;;;;;;;;;2.00;2.00;;;;;20.89;59.05;100858.56;105725;1297;20845;-62
2022/11/10 04:48:33;;;;;;;;;3.00;2.00;;;;;20.88;59.11;100859.39;105725;1289;18677;-61
2022/11/10 04:51:00;;;;;;;;;1.00;1.00;;;;;20.88;59.20;100854.34;105741;1300;18701;-61
2022/11/10 04:53:27;;;;;;;;;2.00;2.00;;;;;20.88;59.23;100860.31;105725;1294;22884;-61
2022/11/10 04:55:55;;;;;;;;;2.00;2.00;;;;;20.89;59.27;100858.20;105790;1279;21033;-61
2022/11/10 04:58:22;;;;;;;;;2.00;2.00;;;;;20.89;59.09;100852.95;105713;1279;18529;-60
2022/11/10 05:00:49;;;;;;;;;4.00;4.00;;;;;20.89;59.20;100853.02;105692;1285;19306;-60
2022/11/10 05:03:16;;;;;;;;;2.00;2.00;;;;;20.88;59.20;100855.46;105650;1279;18364;-61
2022/11/10 05:05:44;;;;;;;;;2.00;2.00;;;;;20.88;59.22;100858.91;105723;1288;19977;-61
2022/11/10 05:08:11;;;;;;;;;1.00;1.00;;;;;20.87;59.15;100861.34;105753;1294;20848;-61
2022/11/10 05:10:39;;;;;;;;;2.00;2.00;;;;;20.88;59.27;100865.99;105724;1278;26392;-61
2022/11/10 05:13:06;;;;;;;;;2.00;2.00;;;;;20.88;59.15;100869.58;105779;1278;18513;-61
2022/11/10 05:15:33;;;;;;;;;;;;;;;20.89;59.27;100870.46;105721;1279;22754;-62
2022/11/10 05:18:00;;;;;;;;;2.00;2.00;;;;;20.88;59.21;100872.50;105707;1297;18285;-61
2022/11/10 05:20:28;;;;;;;;;3.00;2.00;;;;;20.88;59.07;100874.38;105718;1279;19905;-62
2022/11/10 05:25:40;;;;;;;;;2.00;2.00;;;;;20.87;58.87;100878.77;105720;1288;19950;-62
2022/11/10 05:28:08;;;;;;;;;2.00;2.00;;;;;20.87;59.08;100880.60;105696;1279;22736;-62
2022/11/10 05:30:35;;;;;;;;;2.00;2.00;;;;;20.88;59.02;100890.68;105697;1287;19761;-62
2022/11/10 05:33:02;;;;;;;;;;;;;;;20.88;59.30;100895.98;105740;1294;20232;-61
2022/11/10 05:35:30;;;;;;;;;2.00;2.00;;;;;20.88;59.11;100901.18;105719;1278;18235;-61
2022/11/10 05:37:57;;;;;;;;;2.00;2.00;;;;;20.88;59.18;100897.05;105735;1289;19453;-61
2022/11/10 05:40:24;;;;;;;;;5.00;2.00;;;;;20.88;59.01;100903.27;105735;1278;18769;-62
2022/11/10 05:42:52;;;;;;;;;2.00;2.00;;;;;20.88;59.04;100910.52;105729;1285;18530;-62
2022/11/10 05:45:20;;;;;;;;;4.00;4.00;;;;;20.88;59.05;100911.36;105719;1271;19288;-61
2022/11/10 05:47:47;;;;;;;;;2.00;2.00;;;;;20.88;59.35;100909.79;105718;1279;20294;-61
2022/11/10 05:50:14;;;;;;;;;2.00;2.00;;;;;20.87;59.08;100922.52;105755;1297;18482;-61
2022/11/10 05:52:41;;;;;;;;;4.00;2.00;;;;;20.86;59.14;100924.27;105705;1276;22496;-60
2022/11/10 05:55:09;;;;;;;;;4.00;3.00;;;;;20.86;59.19;100931.89;105644;1294;19591;-60
2022/11/10 05:57:36;;;;;;;;;5.00;2.00;;;;;20.86;59.25;100940.82;105701;1295;22703;-61
2022/11/10 06:00:04;;;;;;;;;2.00;2.00;;;;;20.85;59.23;100945.27;105675;1279;20810;-61
2022/11/10 06:02:31;;;;;;;;;2.00;2.00;;;;;20.87;58.97;100952.59;105726;1288;22772;-60
2022/11/10 06:04:58;;;;;;;;;2.00;2.00;;;;;20.86;59.12;100952.30;105704;1278;20157;-61
2022/11/10 06:07:25;;;;;;;;;4.00;4.00;;;;;20.88;59.10;100948.10;105577;1288;20740;-61
2022/11/10 06:09:53;;;;;;;;;4.00;4.00;;;;;20.90;59.17;100951.46;105652;1298;22400;-61
2022/11/10 06:12:20;;;;;;;;;2.00;2.00;;;;;20.91;59.12;100956.64;105742;1288;18622;-60
2022/11/10 06:14:47;;;;;;;;;4.00;4.00;;;;;20.92;59.60;100959.63;105722;1294;21092;-61
2022/11/10 06:17:15;;;;;;;;;2.00;2.00;;;;;20.94;59.82;100963.55;105761;1281;22626;-60
2022/11/10 06:19:42;;;;;;;;;29.50;23.50;;;;;20.97;60.34;100967.36;105722;1279;18535;-60
2022/11/10 06:22:10;;;;;;;;;98.00;74.00;;;;;21.01;60.63;100977.86;105691;1294;19277;-58
2022/11/10 06:24:37;;;;;;;;;65.00;51.00;;;;;21.06;61.03;100984.64;105747;1295;19989;-60
2022/11/10 06:27:04;;;;;;;;;64.00;51.00;;;;;21.07;61.12;100979.64;105717;1297;18608;-61
2022/11/10 06:29:32;;;;;;;;;43.50;39.50;;;;;21.04;61.29;100985.63;105718;1295;19316;-59
2022/11/10 06:31:59;;;;;;;;;33.00;31.50;;;;;21.05;61.35;100995.52;105743;1296;19975;-59
2022/11/10 06:34:27;;;;;;;;;30.00;26.00;;;;;21.05;61.33;101003.49;105696;1294;20065;-60
2022/11/10 06:36:54;;;;;;;;;25.00;23.00;;;;;21.04;61.43;101005.60;105706;1279;19330;-59
2022/11/10 06:39:21;;;;;;;;;23.00;21.00;;;;;21.03;61.31;101016.12;105686;1272;22314;-61
2022/11/10 06:41:49;;;;;;;;;22.00;18.00;;;;;21.02;61.32;101020.09;105751;1272;18631;-60
2022/11/10 06:44:16;;;;;;;;;19.00;19.00;;;;;21.01;61.23;101023.64;105741;1288;20894;-61
2022/11/10 06:46:43;;;;;;;;;15.00;15.00;;;;;20.99;61.27;101023.70;105699;1279;22169;-61
2022/11/10 06:49:11;;;;;;;;;16.00;15.00;;;;;20.98;61.28;101027.37;105711;1294;18625;-60
2022/11/10 06:51:39;;;;;;;;;21.00;15.00;;;;;20.99;61.14;101029.85;105716;1288;21172;-59
2022/11/10 06:54:06;;;;;;;;;15.50;14.50;;;;;20.99;61.15;101028.71;105734;1297;18472;-61
2022/11/10 06:56:33;;;;;;;;;13.50;13.50;;;;;21.00;60.89;101039.40;105590;1295;18704;-61
2022/11/10 06:59:01;;;;;;;;;14.50;14.00;;;;;21.00;60.92;101043.66;105688;1288;20748;-61
2022/11/10 07:01:28;;;;;;;;;12.00;12.00;;;;;20.98;60.96;101049.14;105720;1272;18513;-61
2022/11/10 07:03:55;;;;;;;;;13.00;10.00;;;;;20.99;60.80;101051.84;105690;1279;18619;-61
2022/11/10 07:06:22;;;;;;;;;9.00;8.00;;;;;20.98;60.92;101052.51;105746;1278;19301;-60
2022/11/10 07:08:50;;;;;;;;;11.00;11.00;;;;;20.98;61.00;101065.23;105740;1275;19926;-60
2022/11/10 07:11:17;;;;;;;;;8.00;7.00;;;;;20.97;60.85;101068.20;105686;1279;19977;-60
2022/11/10 07:13:44;;;;;;;;;11.00;9.00;;;;;20.96;60.81;101068.29;105667;1279;22222;-59
2022/11/10 07:16:12;;;;;;;;;;;;;;;20.96;60.60;101073.77;105695;1294;18548;-60
2022/11/10 07:18:39;;;;;;;;;9.50;7.50;;;;;20.97;60.63;101073.46;105676;1288;19806;-61
2022/11/10 07:21:06;;;;;;;;;8.00;8.00;;;;;20.96;60.62;101065.23;105673;1287;21062;-60
2022/11/10 07:23:34;;;;;;;;;7.00;5.00;;;;;20.96;60.63;101066.83;105628;1272;18442;-60
2022/11/10 07:26:01;;;;;;;;;7.50;6.00;;;;;20.97;60.61;101075.30;105651;1295;22306;-60
2022/11/10 07:28:28;;;;;;;;;7.00;7.00;;;;;20.96;60.65;101086.14;105581;1279;19280;-61
2022/11/10 07:30:56;;;;;;;;;7.00;7.00;;;;;20.96;60.62;101092.52;105657;1279;18303;-60
2022/11/10 07:33:23;;;;;;;;;7.50;7.00;;;;;20.96;60.49;101087.73;105663;1295;18514;-61
2022/11/10 07:35:50;;;;;;;;;8.00;8.00;;;;;20.96;60.47;101089.36;105618;1294;19777;-61
2022/11/10 07:38:18;;;;;;;;;7.00;5.00;;;;;20.95;60.36;101096.73;105681;1281;19643;-61
2022/11/10 07:40:45;;;;;;;;;6.00;6.00;;;;;20.96;60.27;101097.78;105686;1278;24686;-60
2022/11/10 07:43:12;;;;;;;;;5.00;5.00;;;;;20.95;60.43;101106.92;105725;1279;19296;-61
2022/11/10 07:45:40;;;;;;;;;4.00;4.00;;;;;20.95;60.60;101109.27;105720;1294;19639;-60
2022/11/10 07:48:08;;;;;;;;;5.00;5.00;;;;;20.95;60.58;101110.35;105715;1280;21601;-60
2022/11/10 07:50:35;;;;;;;;;;;;;;;20.96;60.49;101115.95;105694;1297;19254;-60
2022/11/10 07:53:03;;;;;;;;;6.00;6.00;;;;;20.96;60.53;101119.39;105708;1272;22899;-60
2022/11/10 07:55:30;;;;;;;;;5.00;5.00;;;;;20.96;60.56;101120.45;105718;1280;20034;-61
2022/11/10 07:57:58;;;;;;;;;8.00;5.00;;;;;20.98;60.57;101118.94;105750;1286;23834;-61
2022/11/10 08:00:25;;;;;;;;;7.00;5.00;;;;;20.98;60.48;101125.71;105757;1285;19642;-59
2022/11/10 08:02:53;;;;;;;;;5.00;4.00;;;;;20.99;60.61;101129.43;105717;1295;18499;-61
2022/11/10 08:05:20;;;;;;;;;4.50;4.50;;;;;21.00;60.38;101133.49;105713;1297;19425;-61
2022/11/10 08:07:47;;;;;;;;;5.00;5.00;;;;;21.01;60.50;101138.09;105672;1294;18445;-59
2022/11/10 08:10:15;;;;;;;;;5.50;4.50;;;;;21.00;60.44;101138.13;105724;1279;18575;-62
2022/11/10 08:12:42;;;;;;;;;4.00;4.00;;;;;21.00;60.43;101145.07;105725;1288;20768;-58
2022/11/10 08:15:09;;;;;;;;;7.00;5.00;;;;;20.99;60.43;101147.70;105720;1294;18470;-59
2022/11/10 08:17:36;;;;;;;;;4.00;4.00;;;;;20.99;60.54;101153.75;105699;1294;18495;-59
2022/11/10 08:20:04;;;;;;;;;7.00;4.00;;;;;20.98;60.53;101156.52;105737;1279;19269;-59
2022/11/10 08:22:31;;;;;;;;;4.50;4.00;;;;;20.98;60.50;101155.66;105698;1272;18340;-59
2022/11/10 08:24:58;;;;;;;;;5.00;4.00;;;;;20.97;60.58;101158.31;105617;1271;19932;-60
2022/11/10 08:27:26;;;;;;;;;53.50;41.00;;;;;20.99;60.44;101160.85;105671;1272;19297;-60
2022/11/10 08:29:53;;;;;;;;;111.00;82.00;;;;;21.01;60.48;101163.71;105681;1279;20851;-59
2022/11/10 08:32:21;;;;;;;;;110.00;77.00;;;;;21.02;60.45;101169.98;105740;1272;18792;-61
2022/11/10 08:34:48;;;;;;;;;113.00;90.50;;;;;21.03;60.39;101173.42;105845;1271;20572;-61
2022/11/10 08:37:15;;;;;;;;;89.00;65.00;;;;;21.06;60.62;101173.67;105614;1279;18810;-61
2022/11/10 08:39:43;;;;;;;;;89.50;65.00;;;;;21.08;60.87;101179.42;105600;1279;20214;-61
2022/11/10 08:42:10;;;;;;;;;68.00;56.00;;;;;21.12;60.65;101184.38;105639;1279;19304;-61
2022/11/10 08:44:37;;;;;;;;;70.00;56.00;;;;;21.15;60.53;101188.48;105551;1279;18761;-61
2022/11/10 08:47:05;;;;;;;;;62.00;45.00;;;;;21.19;60.65;101189.15;105624;1294;18614;-61
2022/11/10 08:49:32;;;;;;;;;41.00;32.00;;;;;21.21;60.59;101196.77;105633;1272;20842;-61
2022/11/10 08:51:59;;;;;;;;;45.00;37.50;;;;;21.14;60.23;101202.81;105661;1294;18502;-62
2022/11/10 08:54:27;;;;;;;;;32.00;25.00;;;;;21.11;59.88;101210.45;105616;1279;20117;-61
2022/11/10 08:56:54;;;;;;;;;34.00;27.00;;;;;21.07;59.49;101211.38;105628;1278;19386;-61
2022/11/10 08:59:21;;;;;;;;;28.00;25.00;;;;;21.06;59.09;101217.48;105606;1295;19108;-61
2022/11/10 09:01:49;;;;;;;;;23.00;20.00;;;;;21.07;58.62;101226.77;105546;1288;22119;-61
2022/11/10 09:04:16;;;;;;;;;19.00;16.00;;;;;21.06;58.53;101230.50;105498;1275;19577;-61
2022/11/10 09:06:43;;;;;;;;;21.00;19.00;;;;;21.03;57.89;101234.52;105644;1294;18492;-61
2022/11/10 09:09:11;;;;;;;;;15.00;14.00;;;;;21.03;57.45;101239.77;105619;1294;22074;-61
2022/11/10 09:11:38;;;;;;;;;14.50;13.00;;;;;21.03;56.97;101241.54;105640;1297;19195;-61
2022/11/10 09:14:05;;;;;;;;;16.00;14.00;;;;;21.02;56.90;101247.55;105665;1287;19812;-60
2022/11/10 09:16:33;;;;;;;;;;;;;;;21.00;56.45;101245.73;105601;1298;23403;-58
2022/11/10 09:19:00;;;;;;;;;11.50;11.00;;;;;20.95;55.98;101245.92;105623;1295;21158;-60
2022/11/10 09:21:27;;;;;;;;;13.00;9.00;;;;;20.94;55.61;101245.33;105632;1295;18312;-60
2022/11/10 09:23:55;;;;;;;;;11.50;11.50;;;;;20.94;55.43;101254.17;105615;1279;20048;-60
2022/11/10 09:26:22;;;;;;;;;8.00;8.00;;;;;20.94;54.95;101253.91;105600;1279;19320;-59
2022/11/10 09:28:49;;;;;;;;;11.00;11.00;;;;;20.93;54.93;101257.95;105630;1279;20577;-60
2022/11/10 09:31:17;;;;;;;;;24.00;20.00;;;;;20.89;54.71;101260.41;105617;1279;23725;-61
2022/11/10 09:33:44;;;;;;;;;16.50;16.00;;;;;20.79;53.77;101265.33;105660;1271;19278;-60
2022/11/10 09:36:11;;;;;;;;;14.00;11.50;;;;;20.78;53.92;101268.14;105612;1279;23233;-61
2022/11/10 09:38:39;;;;;;;;;12.00;12.00;;;;;20.82;53.98;101267.88;105630;1281;18504;-60
2022/11/10 09:41:06;;;;;;;;;15.00;11.50;;;;;20.87;53.91;101271.71;105551;1294;20840;-61
2022/11/10 09:43:34;;;;;;;;;10.00;10.00;;;;;20.91;53.20;101273.57;105574;1289;18579;-61
2022/11/10 09:46:01;;;;;;;;;12.00;11.00;;;;;20.95;52.87;101277.17;105595;1295;20288;-61
2022/11/10 09:48:28;;;;;;;;;9.00;8.00;;;;;20.93;53.04;101279.57;105624;1281;22123;-60
2022/11/10 09:50:56;;;;;;;;;11.00;9.00;;;;;20.88;52.80;101287.91;105608;1279;20101;-59
2022/11/10 09:53:23;;;;;;;;;9.00;8.50;;;;;20.87;53.14;101288.98;105625;1295;20073;-60
2022/11/10 09:55:50;;;;;;;;;8.67;8.33;;;;;20.85;53.05;101295.48;105592;1279;24203;-60
2022/11/10 09:58:18;;;;;;;;;11.00;9.00;;;;;20.82;52.77;101296.54;105622;1279;18655;-60
2022/11/10 10:00:45;;;;;;;;;9.00;8.00;;;;;20.84;53.08;101294.02;105605;1297;18560;-60
2022/11/10 10:03:12;;;;;;;;;10.50;9.00;;;;;20.85;52.96;101301.64;105658;1271;20732;-60
2022/11/10 10:05:40;;;;;;;;;7.00;7.00;;;;;20.84;52.87;101302.70;105578;1294;21609;-60
2022/11/10 10:08:07;;;;;;;;;9.00;9.00;;;;;20.84;52.95;101299.87;105679;1294;20059;-60
2022/11/10 10:10:35;;;;;;;;;9.00;8.00;;;;;20.83;52.99;101306.48;105610;1274;22029;-61
2022/11/10 10:13:02;;;;;;;;;8.50;8.00;;;;;20.81;52.88;101303.73;105641;1297;18554;-61
2022/11/10 10:15:29;;;;;;;;;8.00;8.00;;;;;20.81;52.84;101313.20;105610;1279;21855;-61
2022/11/10 10:17:57;;;;;;;;;8.50;7.00;;;;;20.79;52.73;101312.27;105667;1272;20761;-61
2022/11/10 10:20:24;;;;;;;;;8.00;8.00;;;;;20.80;52.32;101315.65;105670;1297;18339;-61
2022/11/10 10:22:51;;;;;;;;;7.00;7.00;;;;;20.80;52.28;101318.00;105674;1272;19992;-61
2022/11/10 10:25:19;;;;;;;;;7.00;5.00;;;;;20.81;52.30;101315.59;105619;1288;19207;-61
2022/11/10 10:27:46;;;;;;;;;8.00;7.00;;;;;20.78;52.11;101317.79;105639;1279;23539;-61
2022/11/10 10:30:13;;;;;;;;;7.00;7.00;;;;;20.77;52.10;101323.41;105649;1288;20067;-61
2022/11/10 10:32:41;;;;;;;;;9.00;8.00;;;;;20.78;52.10;101324.23;105666;1295;20905;-60
2022/11/10 10:35:08;;;;;;;;;7.00;5.00;;;;;20.77;52.02;101330.88;105642;1300;18315;-61
2022/11/10 10:37:36;;;;;;;;;8.50;7.50;;;;;20.76;51.71;101322.59;105683;1301;18524;-61
2022/11/10 10:40:03;;;;;;;;;8.00;7.00;;;;;20.77;51.85;101327.30;105629;1279;19328;-60
2022/11/10 10:42:30;;;;;;;;;8.00;8.00;;;;;20.77;51.77;101329.58;105570;1279;18588;-60
2022/11/10 10:44:58;;;;;;;;;8.00;8.00;;;;;20.78;51.70;101333.29;105516;1297;19997;-60
2022/11/10 10:47:25;;;;;;;;;7.00;7.00;;;;;20.77;51.57;101337.95;105712;1279;21093;-60
2022/11/10 10:49:53;;;;;;;;;6.00;5.00;;;;;20.75;51.41;101333.13;105685;1271;22064;-61
2022/11/10 10:52:23;;;;;;;;;7.00;5.00;;;;;20.72;51.43;101335.58;105689;1279;20045;-62
2022/11/10 10:54:50;;;;;;;;;6.00;6.00;;;;;20.74;51.17;101343.52;105701;1279;21589;-61
2022/11/10 10:57:18;;;;;;;;;5.00;4.00;;;;;20.74;51.26;101343.13;105682;1294;19651;-60
2022/11/10 10:59:45;;;;;;;;;7.00;7.00;;;;;20.74;51.18;101340.45;105726;1272;21412;-60
2022/11/10 11:02:12;;;;;;;;;7.00;5.00;;;;;20.73;51.10;101340.00;105736;1300;19273;-61
2022/11/10 11:04:40;;;;;;;;;4.00;4.00;;;;;20.72;50.89;101341.05;105639;1272;18481;-61
2022/11/10 11:07:07;;;;;;;;;5.00;5.00;;;;;20.71;50.74;101348.58;105750;1286;18558;-60
2022/11/10 11:09:34;;;;;;;;;9.50;8.00;;;;;20.69;50.78;101349.48;105726;1294;22215;-60
2022/11/10 11:12:02;;;;;;;;;8.00;8.00;;;;;20.68;50.79;101348.52;105645;1294;18516;-61
2022/11/10 11:14:29;;;;;;;;;7.00;7.00;;;;;20.70;50.57;101348.89;105757;1294;20033;-60
2022/11/10 11:16:57;;;;;;;;;7.00;7.00;;;;;20.70;50.63;101350.54;105767;1272;20901;-61
2022/11/10 11:19:24;;;;;;;;;7.00;7.00;;;;;20.69;50.62;101347.13;105735;1278;22616;-61
2022/11/10 11:21:51;;;;;;;;;5.00;5.00;;;;;20.70;50.64;101352.13;105711;1287;20943;-60
2022/11/10 11:24:18;;;;;;;;;5.00;4.00;;;;;20.70;50.57;101351.84;105780;1278;19305;-61
2022/11/10 11:26:46;;;;;;;;;5.00;5.00;;;;;20.69;50.68;101363.36;105713;1269;18587;-61
2022/11/10 11:29:13;;;;;;;;;7.00;5.00;;;;;20.67;50.55;101357.89;105719;1288;20039;-61
2022/11/10 11:31:40;;;;;;;;;7.00;7.00;;;;;20.68;50.41;101365.80;105728;1272;19745;-61
2022/11/10 11:34:08;;;;;;;;;7.00;5.00;;;;;20.67;50.29;101365.84;105717;1294;19585;-61